createdAt,value
2022-10-15T00:01:44.442Z,5.25
2022-10-15T00:06:45.953Z,7.40
2022-10-15T00:11:47.380Z,8.02
2022-10-15T00:16:48.889Z,7.38
2022-10-15T00:21:50.398Z,6.55
2022-10-15T00:26:51.879Z,7.00
2022-10-15T00:31:54.634Z,4.93
2022-10-15T00:36:56.126Z,8.30
2022-10-15T00:41:57.549Z,8.98
2022-10-15T00:47:11.641Z,6.10
2022-10-15T00:52:21.717Z,10.63
2022-10-15T01:02:25.386Z,6.43
2022-10-15T01:07:27.214Z,6.85
2022-10-15T01:12:37.638Z,4.93
2022-10-15T01:22:46.618Z,7.25
2022-10-15T01:27:54.421Z,5.13
2022-10-15T01:33:21.578Z,7.93
2022-10-15T01:38:22.980Z,5.82
2022-10-15T01:43:35.796Z,3.85
2022-10-15T01:48:38.047Z,12.50
2022-10-15T01:53:40.169Z,5.60
2022-10-15T01:58:43.276Z,3.13
2022-10-15T02:03:51.648Z,7.28
2022-10-15T02:08:57.829Z,7.45
2022-10-15T02:14:25.402Z,4.15
2022-10-15T02:19:30.852Z,5.40
2022-10-15T02:24:34.649Z,5.25
2022-10-15T02:29:36.849Z,6.53
2022-10-15T02:34:39.081Z,5.57
2022-10-15T02:39:40.517Z,4.78
2022-10-15T02:44:41.953Z,5.28
2022-10-15T02:49:43.478Z,7.13
2022-10-15T02:54:44.910Z,2.63
2022-10-15T02:59:46.343Z,5.78
2022-10-15T03:04:47.794Z,4.82
2022-10-15T03:09:49.218Z,5.10
2022-10-15T03:14:50.653Z,4.03
2022-10-15T03:19:52.120Z,4.15
2022-10-15T03:24:53.586Z,5.45
2022-10-15T03:29:55.072Z,6.30
2022-10-15T03:34:56.494Z,4.63
2022-10-15T03:39:57.923Z,4.65
2022-10-15T03:44:59.358Z,5.30
2022-10-15T03:50:00.790Z,4.68
2022-10-15T03:55:02.253Z,6.03
2022-10-15T04:00:04.506Z,7.85
2022-10-15T04:05:06.057Z,4.80
2022-10-15T04:10:07.790Z,7.15
2022-10-15T04:15:09.468Z,4.25
2022-10-15T04:20:11.154Z,6.47
2022-10-15T04:25:12.586Z,7.30
2022-10-15T04:30:14.345Z,8.30
2022-10-15T04:35:15.817Z,5.90
2022-10-15T04:40:18.537Z,6.53
2022-10-15T04:45:20.104Z,5.85
2022-10-15T04:50:21.571Z,5.93
2022-10-15T04:55:22.998Z,7.28
2022-10-15T05:00:24.421Z,10.52
2022-10-15T05:05:25.913Z,9.95
2022-10-15T05:10:27.345Z,12.63
2022-10-15T05:15:28.798Z,17.10
2022-10-15T05:20:30.213Z,9.20
2022-10-15T05:25:31.640Z,10.48
2022-10-15T05:30:34.485Z,11.95
2022-10-15T05:35:36.038Z,17.52
2022-10-15T05:40:37.517Z,17.33
2022-10-15T05:45:38.945Z,17.33
2022-10-15T05:50:40.378Z,14.50
2022-10-15T05:55:41.813Z,13.35
2022-10-15T06:00:43.301Z,16.48
2022-10-15T06:05:44.729Z,16.95
2022-10-15T06:10:46.437Z,18.33
2022-10-15T06:15:47.937Z,19.88
2022-10-15T06:20:52.940Z,22.42
2022-10-15T06:25:54.639Z,22.20
2022-10-15T06:30:57.840Z,18.65
2022-10-15T06:36:02.980Z,20.88
2022-10-15T06:41:05.233Z,20.15
2022-10-15T06:46:06.972Z,16.08
2022-10-15T06:51:08.573Z,17.23
2022-10-15T06:56:10.010Z,18.33
2022-10-15T07:01:11.550Z,22.77
2022-10-15T07:06:13.035Z,21.05
2022-10-15T07:11:14.480Z,30.73
2022-10-15T07:16:15.930Z,30.10
2022-10-15T07:21:17.693Z,27.85
2022-10-15T07:26:19.188Z,27.38
2022-10-15T07:31:20.777Z,20.08
2022-10-15T07:36:22.254Z,26.38
2022-10-15T07:41:23.951Z,29.17
2022-10-15T07:46:25.490Z,23.90
2022-10-15T07:51:26.961Z,24.73
2022-10-15T07:56:28.447Z,33.30
2022-10-15T08:01:29.894Z,31.00
2022-10-15T08:06:32.036Z,21.05
2022-10-15T08:11:33.486Z,26.80
2022-10-15T08:16:35.477Z,30.58
2022-10-15T08:21:36.954Z,27.73
2022-10-15T08:26:38.528Z,22.42
2022-10-15T08:31:40.124Z,33.58
2022-10-15T08:36:41.589Z,25.77
2022-10-15T08:41:45.484Z,22.35
2022-10-15T08:46:49.150Z,29.83
2022-10-15T08:51:54.735Z,24.85
2022-10-15T08:57:06.781Z,24.08
2022-10-15T09:02:08.271Z,23.95
2022-10-15T09:07:14.421Z,27.85
2022-10-15T09:12:37.012Z,29.15
2022-10-15T09:17:38.755Z,29.38
2022-10-15T09:22:40.323Z,29.15
2022-10-15T09:27:42.818Z,27.88
2022-10-15T09:33:03.165Z,29.35
2022-10-15T09:38:23.155Z,19.27
2022-10-15T09:43:30.846Z,25.40
2022-10-15T09:48:33.955Z,24.35
2022-10-15T09:53:38.531Z,23.80
2022-10-15T09:58:56.721Z,29.45
2022-10-15T10:04:16.722Z,22.45
2022-10-15T10:09:21.187Z,28.77
2022-10-15T10:14:27.763Z,24.13
2022-10-15T10:19:29.297Z,24.67
2022-10-15T10:24:32.136Z,28.33
2022-10-15T10:29:36.784Z,31.00
2022-10-15T10:34:38.380Z,30.95
2022-10-15T10:39:40.054Z,36.03
2022-10-15T10:44:46.477Z,32.15
2022-10-15T10:49:52.641Z,42.45
2022-10-15T10:55:20.950Z,28.95
2022-10-15T11:00:41.072Z,30.98
2022-10-15T11:05:42.759Z,32.17
2022-10-15T11:10:49.565Z,38.97
2022-10-15T11:15:59.495Z,31.15
2022-10-15T11:21:14.527Z,34.13
2022-10-15T11:26:19.110Z,38.72
2022-10-15T11:31:49.075Z,35.30
2022-10-15T11:37:19.421Z,24.42
2022-10-15T11:42:27.076Z,33.20
2022-10-15T11:47:46.918Z,31.05
2022-10-15T11:52:58.033Z,25.23
2022-10-15T11:58:01.870Z,29.02
2022-10-15T12:03:12.362Z,25.40
2022-10-15T12:08:14.483Z,22.38
2022-10-15T12:13:27.933Z,22.85
2022-10-15T12:18:32.141Z,23.33
2022-10-15T12:23:36.410Z,24.92
2022-10-15T12:28:47.655Z,20.52
2022-10-15T12:33:50.646Z,15.52
2022-10-15T12:39:47.674Z,20.85
2022-10-15T12:44:48.662Z,21.90
2022-10-15T12:50:00.142Z,18.02
2022-10-15T12:55:20.193Z,25.52
2022-10-15T13:00:24.445Z,24.13
2022-10-15T13:05:32.870Z,28.25
2022-10-15T13:10:36.428Z,25.00
2022-10-15T13:15:37.881Z,24.70
2022-10-15T13:20:42.177Z,26.42
2022-10-15T13:25:43.765Z,23.27
2022-10-15T13:30:48.533Z,25.58
2022-10-15T13:35:50.178Z,25.35
2022-10-15T13:40:52.947Z,27.95
2022-10-15T13:45:55.516Z,22.05
2022-10-15T13:51:04.665Z,25.63
2022-10-15T13:56:25.513Z,23.20
2022-10-15T14:01:27.596Z,27.38
2022-10-15T14:06:38.219Z,21.58
2022-10-15T14:11:40.159Z,29.30
2022-10-15T14:16:46.905Z,25.10
2022-10-15T14:21:52.122Z,24.70
2022-10-15T14:26:53.629Z,30.30
2022-10-15T14:31:55.469Z,31.17
2022-10-15T14:36:57.172Z,31.27
2022-10-15T14:42:00.430Z,32.38
2022-10-15T14:47:03.445Z,33.92
2022-10-15T14:52:07.136Z,27.52
2022-10-15T14:57:23.349Z,30.45
2022-10-15T15:02:27.287Z,30.50
2022-10-15T15:07:28.986Z,27.90
2022-10-15T15:12:31.522Z,29.02
2022-10-15T15:17:34.109Z,28.20
2022-10-15T15:22:35.862Z,33.85
2022-10-15T15:27:37.662Z,27.23
2022-10-15T15:32:39.451Z,38.80
2022-10-15T15:37:40.911Z,26.77
2022-10-15T15:42:42.721Z,29.33
2022-10-15T15:47:44.259Z,31.35
2022-10-15T15:52:45.918Z,28.90
2022-10-15T15:57:47.479Z,27.70
2022-10-15T16:02:48.951Z,35.78
2022-10-15T16:07:50.442Z,29.02
2022-10-15T16:12:52.445Z,30.10
2022-10-15T16:17:54.059Z,33.78
2022-10-15T16:22:55.549Z,38.45
2022-10-15T16:27:59.609Z,32.45
2022-10-15T16:33:01.214Z,35.15
2022-10-15T16:38:02.720Z,35.53
2022-10-15T16:43:04.200Z,38.25
2022-10-15T16:48:06.402Z,36.05
2022-10-15T16:53:07.946Z,32.97
2022-10-15T16:58:09.413Z,34.80
2022-10-15T17:03:10.848Z,36.28
2022-10-15T17:08:14.512Z,34.05
2022-10-15T17:13:16.653Z,34.15
2022-10-15T17:18:18.278Z,37.03
2022-10-15T17:23:19.843Z,36.53
2022-10-15T17:28:21.314Z,47.88
2022-10-15T17:33:23.110Z,41.15
2022-10-15T17:38:25.041Z,41.65
2022-10-15T17:43:26.984Z,36.22
2022-10-15T17:48:28.747Z,32.53
2022-10-15T17:53:30.317Z,37.47
2022-10-15T17:58:33.901Z,45.75
2022-10-15T18:03:36.137Z,38.58
2022-10-15T18:08:37.601Z,38.10
2022-10-15T18:13:39.132Z,35.55
2022-10-15T18:18:40.634Z,44.70
2022-10-15T18:23:42.314Z,36.13
2022-10-15T18:28:45.177Z,38.00
2022-10-15T18:33:48.242Z,38.83
2022-10-15T18:38:49.935Z,39.03
2022-10-15T18:43:52.507Z,36.60
2022-10-15T18:48:54.641Z,41.42
2022-10-15T18:53:56.176Z,40.08
2022-10-15T18:58:57.650Z,45.70
2022-10-15T19:04:00.802Z,39.42
2022-10-15T19:09:03.542Z,41.95
2022-10-15T19:14:05.082Z,41.85
2022-10-15T19:19:07.267Z,33.15
2022-10-15T19:24:08.759Z,35.25
2022-10-15T19:29:10.456Z,39.90
2022-10-15T19:34:12.226Z,36.35
2022-10-15T19:39:15.422Z,39.42
2022-10-15T19:44:18.086Z,42.60
2022-10-15T19:49:24.049Z,34.50
2022-10-15T19:59:32.025Z,32.75
2022-10-15T20:04:35.601Z,36.78
2022-10-15T20:12:51.422Z,35.42
2022-10-15T20:15:02.012Z,37.47
2022-10-15T20:20:03.787Z,38.40
2022-10-15T20:25:05.280Z,42.75
2022-10-15T20:30:06.983Z,43.38
2022-10-15T20:35:08.738Z,43.72
2022-10-15T20:40:10.414Z,38.25
2022-10-15T20:45:14.643Z,36.25
2022-10-15T20:50:18.924Z,36.78
2022-10-15T20:55:20.613Z,42.08
2022-10-15T21:00:22.085Z,42.42
2022-10-15T21:05:23.753Z,37.63
2022-10-15T21:10:25.689Z,40.00
2022-10-15T21:15:27.585Z,40.35
2022-10-15T21:20:29.149Z,39.92
2022-10-15T21:25:30.684Z,39.58
2022-10-15T21:30:32.173Z,40.70
2022-10-15T21:35:33.638Z,43.50
2022-10-15T21:40:35.116Z,35.63
2022-10-15T21:45:36.579Z,36.72
2022-10-15T21:50:38.020Z,38.05
2022-10-15T21:55:39.460Z,35.35
2022-10-15T22:00:41.349Z,36.65
2022-10-15T22:05:42.841Z,36.25
2022-10-15T22:10:44.326Z,37.85
2022-10-15T22:15:45.782Z,37.22
2022-10-15T22:20:47.225Z,40.38
2022-10-15T22:25:56.733Z,42.53
2022-10-15T22:31:02.245Z,30.07
2022-10-15T22:36:05.457Z,36.67
2022-10-15T22:41:13.395Z,40.33
2022-10-15T22:46:15.039Z,31.25
2022-10-15T22:51:16.610Z,25.13
2022-10-15T22:56:18.771Z,26.20
2022-10-15T23:01:22.043Z,25.10
2022-10-15T23:06:23.945Z,22.20
2022-10-15T23:11:25.373Z,21.95
2022-10-15T23:16:31.329Z,23.10
2022-10-15T23:21:34.036Z,19.02
2022-10-15T23:26:36.484Z,19.35
2022-10-15T23:31:37.905Z,19.45
2022-10-15T23:36:39.349Z,16.65
2022-10-15T23:41:41.199Z,12.10
2022-10-15T23:46:42.666Z,12.65
2022-10-15T23:51:44.292Z,10.85
2022-10-15T23:56:46.381Z,16.23
